Time;durP1;ratioP1;P1;durP2;ratioP2;P2;SDS_P1;SDS_P2;PMS_P1;PMS_P2;Temp;Humidity;BMP_temperature;BMP_pressure;BME280_temperature;BME280_humidity;BME280_pressure;Samples;Min_cycle;Max_cycle;Signal;HPM_P1;HPM_P2
2024/01/15 00:01:17;;;;;;;18.00;4.00;;;;;;;;;;4988087;28;20058;-70
2024/01/15 00:03:43;;;;;;;16.17;3.80;;;;;;;;;;4994834;28;20494;-71
2024/01/15 00:06:12;;;;;;;10.25;3.53;;;;;;;;;;5023535;28;20097;-70
2024/01/15 00:08:38;;;;;;;12.68;3.13;;;;;;;;;;4989009;28;20051;-70
2024/01/15 00:11:04;;;;;;;20.20;3.78;;;;;;;;;;4988019;28;20046;-70
2024/01/15 00:13:30;;;;;;;16.63;4.15;;;;;;;;;;4993114;28;20061;-71
2024/01/15 00:15:56;;;;;;;14.50;3.97;;;;;;;;;;5017577;28;20043;-71
2024/01/15 00:18:22;;;;;;;12.95;4.07;;;;;;;;;;5026546;28;20573;-70
2024/01/15 00:20:48;;;;;;;8.43;3.00;;;;;;;;;;5019018;28;20445;-70
2024/01/15 00:23:14;;;;;;;10.38;3.03;;;;;;;;;;4987819;28;20035;-70
2024/01/15 00:25:47;;;;;;;10.40;2.70;;;;;;;;;;4985964;28;20046;-70
2024/01/15 00:28:13;;;;;;;16.75;3.80;;;;;;;;;;4983841;28;20051;-70
2024/01/15 00:30:39;;;;;;;16.33;4.20;;;;;;;;;;5018439;28;20490;-70
2024/01/15 00:33:05;;;;;;;15.77;3.65;;;;;;;;;;4986150;28;20064;-70
2024/01/15 00:35:31;;;;;;;24.13;4.32;;;;;;;;;;4989924;28;20106;-70
2024/01/15 00:37:57;;;;;;;15.48;3.95;;;;;;;;;;4987121;28;20755;-70
2024/01/15 00:40:25;;;;;;;21.52;3.92;;;;;;;;;;4992475;28;20045;-70
2024/01/15 00:42:51;;;;;;;19.85;3.80;;;;;;;;;;4989378;28;20505;-70
2024/01/15 00:45:17;;;;;;;24.40;4.50;;;;;;;;;;4987874;28;20073;-69
2024/01/15 00:47:44;;;;;;;14.00;3.97;;;;;;;;;;4993182;28;20042;-70
2024/01/15 00:50:10;;;;;;;19.63;3.55;;;;;;;;;;5019105;28;20056;-71
2024/01/15 00:52:36;;;;;;;13.88;3.50;;;;;;;;;;4987474;28;20479;-70
2024/01/15 00:55:02;;;;;;;30.27;5.03;;;;;;;;;;5018867;28;20454;-70
2024/01/15 00:57:28;;;;;;;16.02;4.53;;;;;;;;;;5018803;28;20550;-70
2024/01/15 00:59:54;;;;;;;20.15;4.53;;;;;;;;;;4991554;28;20041;-70
2024/01/15 01:02:20;;;;;;;16.98;4.32;;;;;;;;;;5018022;28;20509;-70
2024/01/15 01:04:46;;;;;;;16.35;4.50;;;;;;;;;;4997180;28;20046;-70
2024/01/15 01:07:12;;;;;;;20.45;3.65;;;;;;;;;;5028493;28;20045;-70
2024/01/15 01:09:38;;;;;;;25.25;4.07;;;;;;;;;;4995426;28;20050;-71
2024/01/15 01:12:04;;;;;;;10.35;3.33;;;;;;;;;;4997125;28;20054;-71
2024/01/15 01:14:30;;;;;;;19.65;3.88;;;;;;;;;;4990725;28;20050;-71
2024/01/15 01:16:56;;;;;;;15.55;3.58;;;;;;;;;;5027727;28;20042;-70
2024/01/15 01:19:22;;;;;;;18.70;3.95;;;;;;;;;;5020565;28;20053;-71
2024/01/15 01:21:50;;;;;;;20.67;3.63;;;;;;;;;;5016577;28;20129;-69
2024/01/15 01:24:16;;;;;;;17.25;3.60;;;;;;;;;;4987854;28;20046;-70
2024/01/15 01:26:42;;;;;;;6.43;2.63;;;;;;;;;;5006028;28;20181;-70
2024/01/15 01:29:08;;;;;;;9.30;2.85;;;;;;;;;;4987708;28;20054;-70
2024/01/15 01:31:34;;;;;;;9.75;2.95;;;;;;;;;;4999795;28;20057;-70
2024/01/15 01:34:00;;;;;;;10.50;2.35;;;;;;;;;;4990121;28;20047;-70
2024/01/15 01:36:26;;;;;;;10.18;2.53;;;;;;;;;;4989219;28;20051;-70
2024/01/15 01:38:52;;;;;;;6.55;2.30;;;;;;;;;;5015213;28;20034;-70
2024/01/15 01:41:18;;;;;;;9.38;2.80;;;;;;;;;;5019145;28;20498;-70
2024/01/15 01:43:44;;;;;;;14.43;3.28;;;;;;;;;;4985937;28;20038;-70
2024/01/15 01:46:11;;;;;;;13.80;2.90;;;;;;;;;;5009011;28;20058;-70
2024/01/15 01:48:37;;;;;;;14.02;3.20;;;;;;;;;;4985587;28;20042;-71
2024/01/15 01:51:04;;;;;;;17.02;3.63;;;;;;;;;;5017835;28;20053;-70
2024/01/15 01:53:30;;;;;;;13.68;4.07;;;;;;;;;;4986899;28;20058;-70
2024/01/15 01:55:59;;;;;;;13.52;3.95;;;;;;;;;;5024481;28;20391;-70
2024/01/15 01:58:28;;;;;;;21.33;4.75;;;;;;;;;;5024517;28;20050;-70
2024/01/15 02:00:55;;;;;;;22.80;4.13;;;;;;;;;;5018106;28;20053;-70
2024/01/15 02:03:21;;;;;;;20.27;4.43;;;;;;;;;;4981570;28;20053;-70
2024/01/15 02:05:48;;;;;;;17.85;4.03;;;;;;;;;;4989319;28;20045;-70
2024/01/15 02:08:14;;;;;;;22.13;4.28;;;;;;;;;;4983661;28;20069;-71
2024/01/15 02:10:40;;;;;;;14.20;3.80;;;;;;;;;;4992991;28;20050;-70
2024/01/15 02:13:06;;;;;;;14.20;3.83;;;;;;;;;;5023865;28;20050;-70
2024/01/15 02:15:32;;;;;;;12.10;3.20;;;;;;;;;;5024238;28;20450;-70
2024/01/15 02:18:06;;;;;;;17.08;4.25;;;;;;;;;;4996978;28;20041;-70
2024/01/15 02:20:32;;;;;;;15.57;3.72;;;;;;;;;;5031499;28;20425;-70
2024/01/15 02:23:04;;;;;;;13.27;2.90;;;;;;;;;;4995743;28;20043;-70
2024/01/15 02:25:30;;;;;;;14.73;3.47;;;;;;;;;;5025868;28;20045;-70
2024/01/15 02:27:56;;;;;;;11.32;3.17;;;;;;;;;;4988636;28;20399;-70
2024/01/15 02:30:23;;;;;;;11.05;2.95;;;;;;;;;;4988747;28;20038;-70
2024/01/15 02:32:49;;;;;;;8.02;2.90;;;;;;;;;;5017315;28;20338;-70
2024/01/15 02:35:15;;;;;;;14.18;3.25;;;;;;;;;;5014419;28;20050;-70
2024/01/15 02:37:41;;;;;;;8.70;2.75;;;;;;;;;;5016385;28;20054;-70
2024/01/15 02:40:07;;;;;;;11.75;3.15;;;;;;;;;;5014897;28;20050;-70
2024/01/15 02:42:33;;;;;;;9.27;3.28;;;;;;;;;;5014690;28;20092;-70
2024/01/15 02:44:59;;;;;;;12.20;3.40;;;;;;;;;;5014719;28;20495;-70
2024/01/15 02:47:28;;;;;;;15.23;3.10;;;;;;;;;;4983640;28;20105;-70
2024/01/15 02:49:54;;;;;;;11.18;3.03;;;;;;;;;;5015400;28;20054;-69
2024/01/15 02:52:20;;;;;;;12.45;3.67;;;;;;;;;;5012904;28;20364;-70
2024/01/15 02:54:46;;;;;;;9.10;2.80;;;;;;;;;;4995359;28;20050;-70
2024/01/15 02:57:12;;;;;;;11.30;2.97;;;;;;;;;;4996117;28;20085;-70
2024/01/15 02:59:38;;;;;;;11.70;2.70;;;;;;;;;;5020009;28;20086;-70
2024/01/15 03:02:04;;;;;;;15.48;3.45;;;;;;;;;;5013423;28;20585;-70
2024/01/15 03:04:30;;;;;;;11.70;3.00;;;;;;;;;;5015083;28;20097;-71
2024/01/15 03:06:56;;;;;;;11.00;2.90;;;;;;;;;;4989654;28;20046;-70
2024/01/15 03:09:22;;;;;;;10.82;3.30;;;;;;;;;;4995993;28;20490;-70
2024/01/15 03:11:48;;;;;;;8.02;2.95;;;;;;;;;;5001601;28;20049;-70
2024/01/15 03:14:14;;;;;;;14.43;3.72;;;;;;;;;;4994487;28;20046;-70
2024/01/15 03:16:41;;;;;;;16.85;4.25;;;;;;;;;;4980876;28;20066;-70
2024/01/15 03:19:07;;;;;;;18.30;4.13;;;;;;;;;;5028481;28;20050;-70
2024/01/15 03:21:33;;;;;;;17.67;4.13;;;;;;;;;;4991943;28;20471;-70
2024/01/15 03:23:59;;;;;;;15.63;2.97;;;;;;;;;;5029611;28;20052;-70
2024/01/15 03:26:25;;;;;;;11.07;2.65;;;;;;;;;;4993970;28;20048;-70
2024/01/15 03:28:51;;;;;;;16.67;3.17;;;;;;;;;;5027163;28;20054;-70
2024/01/15 03:31:17;;;;;;;6.85;2.65;;;;;;;;;;5024335;28;20450;-70
2024/01/15 03:33:43;;;;;;;15.57;3.10;;;;;;;;;;4994217;28;20486;-69
2024/01/15 03:36:10;;;;;;;18.65;4.10;;;;;;;;;;4988729;28;20061;-71
2024/01/15 03:38:39;;;;;;;15.90;3.88;;;;;;;;;;5022050;28;20057;-70
2024/01/15 03:41:05;;;;;;;11.18;3.08;;;;;;;;;;5015921;28;20061;-70
2024/01/15 03:43:31;;;;;;;9.43;2.72;;;;;;;;;;4989999;28;20055;-70
2024/01/15 03:45:57;;;;;;;10.85;2.80;;;;;;;;;;5015405;28;20051;-70
2024/01/15 03:48:23;;;;;;;14.38;3.05;;;;;;;;;;4985953;28;20422;-70
2024/01/15 03:50:51;;;;;;;13.98;2.63;;;;;;;;;;4985197;28;20042;-69
2024/01/15 03:53:17;;;;;;;12.05;3.10;;;;;;;;;;4988017;28;20056;-70
2024/01/15 03:55:47;;;;;;;17.95;4.60;;;;;;;;;;4995312;28;20053;-70
2024/01/15 03:58:14;;;;;;;13.80;3.30;;;;;;;;;;4992447;28;20387;-70
2024/01/15 04:00:41;;;;;;;18.15;3.30;;;;;;;;;;5017321;28;20054;-71
2024/01/15 04:03:07;;;;;;;11.40;3.00;;;;;;;;;;4987318;28;20088;-69
2024/01/15 04:05:33;;;;;;;15.85;4.15;;;;;;;;;;4981683;28;20161;-70
2024/01/15 04:07:59;;;;;;;20.20;3.88;;;;;;;;;;4987775;28;20046;-70
2024/01/15 04:10:25;;;;;;;8.73;2.75;;;;;;;;;;4986085;28;20061;-69
2024/01/15 04:12:51;;;;;;;12.73;2.83;;;;;;;;;;4996968;28;20398;-70
2024/01/15 04:15:17;;;;;;;18.65;3.67;;;;;;;;;;5028209;28;20054;-70
2024/01/15 04:17:43;;;;;;;16.55;3.45;;;;;;;;;;4996443;28;20053;-69
2024/01/15 04:20:11;;;;;;;15.55;3.30;;;;;;;;;;5001000;28;20490;-70
2024/01/15 04:22:37;;;;;;;16.85;3.60;;;;;;;;;;4994572;28;20057;-70
2024/01/15 04:25:04;;;;;;;13.75;4.25;;;;;;;;;;5036468;28;20046;-70
2024/01/15 04:27:30;;;;;;;12.95;3.28;;;;;;;;;;4989892;28;20474;-70
2024/01/15 04:29:56;;;;;;;18.23;3.30;;;;;;;;;;5022282;28;20042;-69
2024/01/15 04:32:22;;;;;;;16.00;3.60;;;;;;;;;;5023688;28;20100;-69
2024/01/15 04:34:48;;;;;;;11.10;2.92;;;;;;;;;;5010996;28;20121;-70
2024/01/15 04:37:14;;;;;;;14.57;3.08;;;;;;;;;;4990842;28;20046;-70
2024/01/15 04:39:40;;;;;;;12.02;2.80;;;;;;;;;;5028507;28;20136;-69
2024/01/15 04:42:06;;;;;;;12.10;3.70;;;;;;;;;;5023532;28;20501;-70
2024/01/15 04:44:32;;;;;;;15.10;4.40;;;;;;;;;;4993367;28;20549;-70
2024/01/15 04:46:58;;;;;;;13.88;3.97;;;;;;;;;;5006457;28;20100;-69
2024/01/15 04:49:27;;;;;;;15.15;4.22;;;;;;;;;;4990380;28;20050;-70
2024/01/15 04:51:53;;;;;;;12.63;2.88;;;;;;;;;;5020672;28;20050;-69
2024/01/15 04:54:20;;;;;;;15.45;3.88;;;;;;;;;;5018258;28;20093;-69
2024/01/15 04:56:46;;;;;;;12.90;3.22;;;;;;;;;;5023684;28;20072;-69
2024/01/15 04:59:12;;;;;;;19.17;3.72;;;;;;;;;;4993596;28;20077;-70
2024/01/15 05:01:38;;;;;;;17.52;3.65;;;;;;;;;;4994921;28;20046;-69
2024/01/15 05:04:04;;;;;;;15.23;3.20;;;;;;;;;;5022667;28;20125;-69
2024/01/15 05:06:30;;;;;;;11.15;3.70;;;;;;;;;;5019075;28;20502;-70
2024/01/15 05:08:56;;;;;;;23.00;4.30;;;;;;;;;;4986120;28;20066;-69
2024/01/15 05:11:22;;;;;;;16.63;3.40;;;;;;;;;;5017995;28;20045;-69
2024/01/15 05:13:51;;;;;;;20.15;4.47;;;;;;;;;;4988566;28;20770;-70
2024/01/15 05:16:17;;;;;;;17.42;3.60;;;;;;;;;;4992118;28;20046;-69
2024/01/15 05:18:43;;;;;;;15.88;3.55;;;;;;;;;;4985191;28;21433;-70
2024/01/15 05:21:09;;;;;;;9.82;2.78;;;;;;;;;;4991408;28;20046;-69
2024/01/15 05:23:36;;;;;;;8.07;2.30;;;;;;;;;;4991236;28;20070;-70
2024/01/15 05:26:02;;;;;;;5.20;2.00;;;;;;;;;;5033971;28;20418;-70
2024/01/15 05:28:28;;;;;;;4.25;2.30;;;;;;;;;;5016923;28;20042;-70
2024/01/15 05:30:55;;;;;;;8.52;2.47;;;;;;;;;;4983621;28;20058;-70
2024/01/15 05:33:21;;;;;;;13.88;2.75;;;;;;;;;;4981559;28;20051;-69
2024/01/15 05:35:47;;;;;;;7.15;2.75;;;;;;;;;;5027615;28;20510;-70
2024/01/15 05:38:13;;;;;;;11.05;2.95;;;;;;;;;;5020586;28;20481;-70
2024/01/15 05:40:39;;;;;;;9.52;2.97;;;;;;;;;;4981788;28;20469;-70
2024/01/15 05:43:05;;;;;;;17.80;3.63;;;;;;;;;;5020007;28;20050;-70
2024/01/15 05:45:31;;;;;;;17.27;4.70;;;;;;;;;;5015621;28;20190;-70
2024/01/15 05:47:57;;;;;;;13.20;3.85;;;;;;;;;;5016580;28;20518;-69
2024/01/15 05:50:23;;;;;;;19.70;3.38;;;;;;;;;;5017102;28;20065;-69
2024/01/15 05:52:49;;;;;;;17.95;3.70;;;;;;;;;;4983719;28;20133;-69
2024/01/15 05:55:18;;;;;;;16.75;4.00;;;;;;;;;;4981924;28;20085;-70
2024/01/15 05:57:44;;;;;;;12.98;3.55;;;;;;;;;;4987291;28;20050;-70
2024/01/15 06:00:10;;;;;;;11.80;3.17;;;;;;;;;;4984807;28;20430;-70
2024/01/15 06:02:38;;;;;;;19.20;3.72;;;;;;;;;;4983324;28;20042;-69
2024/01/15 06:05:05;;;;;;;17.67;3.63;;;;;;;;;;5019357;28;20046;-69
2024/01/15 06:07:31;;;;;;;19.52;4.25;;;;;;;;;;5017713;28;20050;-70
2024/01/15 06:09:57;;;;;;;15.65;3.72;;;;;;;;;;4984625;28;20046;-70
2024/01/15 06:12:23;;;;;;;17.95;5.70;;;;;;;;;;4995087;28;20544;-69
2024/01/15 06:14:49;;;;;;;19.52;3.67;;;;;;;;;;5017475;28;20149;-69
2024/01/15 06:17:15;;;;;;;7.65;2.80;;;;;;;;;;4988552;28;20050;-70
2024/01/15 06:19:41;;;;;;;10.68;3.30;;;;;;;;;;4996165;28;20045;-69
2024/01/15 06:22:07;;;;;;;12.63;2.90;;;;;;;;;;4997473;28;20092;-69
2024/01/15 06:24:33;;;;;;;18.52;2.80;;;;;;;;;;5014038;28;20097;-69
2024/01/15 06:26:59;;;;;;;10.55;3.08;;;;;;;;;;4994092;28;20039;-69
2024/01/15 06:29:27;;;;;;;10.30;2.85;;;;;;;;;;4990422;28;20056;-69
2024/01/15 06:31:53;;;;;;;12.73;2.97;;;;;;;;;;4990128;28;20375;-70
2024/01/15 06:34:19;;;;;;;7.40;2.65;;;;;;;;;;4984338;28;20126;-70
2024/01/15 06:36:45;;;;;;;15.05;3.40;;;;;;;;;;4987498;28;20066;-70
2024/01/15 06:39:11;;;;;;;9.10;2.83;;;;;;;;;;4989503;28;20614;-69
2024/01/15 06:41:43;;;;;;;9.57;3.35;;;;;;;;;;4985115;28;20081;-70
2024/01/15 06:44:12;;;;;;;7.22;2.75;;;;;;;;;;4981646;28;20145;-70
2024/01/15 06:46:51;;;;;;;11.02;2.45;;;;;;;;;;4988928;28;20530;-70
2024/01/15 06:49:17;;;;;;;7.93;2.50;;;;;;;;;;5017454;28;20568;-69
2024/01/15 06:51:43;;;;;;;8.10;2.75;;;;;;;;;;4979457;28;20058;-70
2024/01/15 06:54:09;;;;;;;12.32;3.70;;;;;;;;;;4987507;28;20054;-69
2024/01/15 06:56:35;;;;;;;12.30;2.97;;;;;;;;;;4996309;28;20061;-70
2024/01/15 06:59:02;;;;;;;17.38;3.28;;;;;;;;;;4995980;28;20042;-69
2024/01/15 07:01:28;;;;;;;6.55;2.67;;;;;;;;;;4993771;28;20402;-69
2024/01/15 07:03:54;;;;;;;10.60;2.70;;;;;;;;;;4996467;28;20068;-70
2024/01/15 07:06:20;;;;;;;11.02;2.83;;;;;;;;;;5025600;28;20507;-69
2024/01/15 07:08:46;;;;;;;9.98;3.05;;;;;;;;;;5026179;28;20187;-69
2024/01/15 07:11:12;;;;;;;10.93;3.45;;;;;;;;;;4995717;28;20150;-70
2024/01/15 07:13:38;;;;;;;15.05;4.20;;;;;;;;;;5033055;28;20137;-70
2024/01/15 07:16:04;;;;;;;9.07;2.80;;;;;;;;;;4993610;28;20129;-70
2024/01/15 07:18:30;;;;;;;16.88;3.25;;;;;;;;;;4992018;28;20046;-70
2024/01/15 07:20:56;;;;;;;11.23;3.00;;;;;;;;;;4985770;28;20041;-70
2024/01/15 07:23:22;;;;;;;11.88;3.40;;;;;;;;;;5024340;28;20054;-70
2024/01/15 07:25:48;;;;;;;5.30;2.20;;;;;;;;;;4995495;28;20160;-69
2024/01/15 07:28:15;;;;;;;10.70;2.95;;;;;;;;;;5018887;28;20465;-70
2024/01/15 07:30:41;;;;;;;10.68;2.90;;;;;;;;;;4991799;28;20047;-70
2024/01/15 07:33:07;;;;;;;8.32;3.10;;;;;;;;;;4997543;28;20135;-70
2024/01/15 07:35:33;;;;;;;13.23;3.20;;;;;;;;;;5023436;28;20165;-70
2024/01/15 07:37:59;;;;;;;12.40;2.90;;;;;;;;;;4986152;28;20451;-69
2024/01/15 07:40:25;;;;;;;9.60;3.05;;;;;;;;;;4994588;28;20050;-68
2024/01/15 07:42:52;;;;;;;11.82;3.30;;;;;;;;;;4988699;28;20046;-68
2024/01/15 07:45:18;;;;;;;11.00;3.47;;;;;;;;;;5001277;28;20606;-68
2024/01/15 07:47:44;;;;;;;13.35;3.20;;;;;;;;;;4991764;28;20045;-68
2024/01/15 07:50:10;;;;;;;17.13;3.72;;;;;;;;;;4986925;28;20450;-69
2024/01/15 07:52:36;;;;;;;14.15;3.13;;;;;;;;;;4994772;28;20398;-68
2024/01/15 07:55:05;;;;;;;10.20;2.55;;;;;;;;;;4993753;28;20046;-69
2024/01/15 07:57:31;;;;;;;6.18;2.72;;;;;;;;;;5020604;28;20050;-69
2024/01/15 07:59:57;;;;;;;9.85;2.70;;;;;;;;;;4990992;28;20097;-69
2024/01/15 08:02:23;;;;;;;9.95;2.70;;;;;;;;;;5024938;28;20042;-69
2024/01/15 08:04:49;;;;;;;13.15;3.13;;;;;;;;;;4989302;28;20085;-69
2024/01/15 08:07:15;;;;;;;13.00;3.10;;;;;;;;;;4985271;28;20474;-69
2024/01/15 08:09:41;;;;;;;16.50;3.50;;;;;;;;;;4985544;28;20083;-69
2024/01/15 08:12:08;;;;;;;13.35;3.63;;;;;;;;;;4965876;28;20154;-69
2024/01/15 08:14:35;;;;;;;17.92;3.80;;;;;;;;;;4958223;28;20107;-69
2024/01/15 08:17:01;;;;;;;11.43;2.63;;;;;;;;;;4961252;28;20043;-69
2024/01/15 08:19:27;;;;;;;13.45;2.80;;;;;;;;;;4959564;28;20042;-68
2024/01/15 08:21:53;;;;;;;19.55;3.13;;;;;;;;;;4977626;28;20053;-69
2024/01/15 08:24:19;;;;;;;11.00;2.78;;;;;;;;;;4981795;28;20043;-69
2024/01/15 08:26:45;;;;;;;5.22;2.28;;;;;;;;;;5002060;28;20070;-68
2024/01/15 08:29:11;;;;;;;9.77;2.65;;;;;;;;;;4966298;28;20048;-69
2024/01/15 08:31:37;;;;;;;9.07;2.83;;;;;;;;;;4978076;28;20125;-71
2024/01/15 08:34:04;;;;;;;8.15;2.42;;;;;;;;;;4967468;28;20168;-69
2024/01/15 08:36:30;;;;;;;9.52;2.58;;;;;;;;;;4977909;28;20050;-69
2024/01/15 08:38:57;;;;;;;7.03;2.25;;;;;;;;;;4988158;28;20081;-68
2024/01/15 08:41:24;;;;;;;7.65;2.10;;;;;;;;;;4966711;28;20050;-68
2024/01/15 08:43:53;;;;;;;10.07;3.53;;;;;;;;;;4977554;28;20069;-69
2024/01/15 08:46:19;;;;;;;7.10;2.55;;;;;;;;;;4978517;28;20046;-69
2024/01/15 08:48:48;;;;;;;15.30;2.70;;;;;;;;;;4976720;28;20415;-69
2024/01/15 08:51:14;;;;;;;6.20;2.33;;;;;;;;;;4971420;28;20054;-69
2024/01/15 08:53:40;;;;;;;13.13;3.25;;;;;;;;;;4967138;28;20561;-69
2024/01/15 08:56:06;;;;;;;13.77;3.80;;;;;;;;;;5005535;28;20054;-69
2024/01/15 08:58:32;;;;;;;12.48;2.95;;;;;;;;;;4963692;28;20051;-69
2024/01/15 09:00:58;;;;;;;12.68;2.75;;;;;;;;;;4968947;28;20525;-69
2024/01/15 09:03:24;;;;;;;9.90;3.17;;;;;;;;;;4972364;28;20126;-69
2024/01/15 09:05:51;;;;;;;13.40;3.10;;;;;;;;;;4965297;28;20055;-69
2024/01/15 09:08:17;;;;;;;12.02;3.05;;;;;;;;;;4975668;28;20062;-70
2024/01/15 09:10:43;;;;;;;4.95;2.08;;;;;;;;;;4986167;28;20541;-69
2024/01/15 09:13:09;;;;;;;8.93;2.70;;;;;;;;;;4995622;28;20049;-74
2024/01/15 09:15:35;;;;;;;10.13;2.97;;;;;;;;;;5023051;28;20050;-68
2024/01/15 09:18:02;;;;;;;9.77;2.72;;;;;;;;;;4998027;28;20053;-69
2024/01/15 09:20:28;;;;;;;3.97;2.03;;;;;;;;;;4986083;28;20058;-69
2024/01/15 09:22:54;;;;;;;4.72;2.22;;;;;;;;;;4987966;28;20052;-68
2024/01/15 09:25:20;;;;;;;7.13;2.42;;;;;;;;;;5000996;28;20498;-68
2024/01/15 09:27:46;;;;;;;7.13;2.38;;;;;;;;;;4982980;28;20046;-69
2024/01/15 09:30:13;;;;;;;6.57;2.17;;;;;;;;;;4983609;28;20077;-69
2024/01/15 09:32:39;;;;;;;6.30;2.00;;;;;;;;;;4980313;28;20046;-69
2024/01/15 09:35:06;;;;;;;4.88;2.00;;;;;;;;;;4984916;28;20100;-69
2024/01/15 09:37:32;;;;;;;3.67;2.15;;;;;;;;;;4987174;28;20054;-69
2024/01/15 09:39:58;;;;;;;5.00;1.90;;;;;;;;;;4984259;28;20380;-69
2024/01/15 09:42:27;;;;;;;3.13;2.20;;;;;;;;;;5020199;28;20049;-68
2024/01/15 09:44:53;;;;;;;9.68;2.50;;;;;;;;;;4981542;28;20074;-69
2024/01/15 09:47:20;;;;;;;4.55;2.58;;;;;;;;;;5022607;28;20435;-68
2024/01/15 09:49:46;;;;;;;9.10;2.95;;;;;;;;;;4990432;28;20402;-69
2024/01/15 09:52:12;;;;;;;9.13;2.42;;;;;;;;;;4985845;28;20047;-69
2024/01/15 09:54:41;;;;;;;5.80;2.10;;;;;;;;;;4993124;28;20050;-69
2024/01/15 09:57:07;;;;;;;6.78;2.22;;;;;;;;;;4990177;28;20054;-69
2024/01/15 09:59:34;;;;;;;8.82;2.53;;;;;;;;;;5024324;28;20096;-69
2024/01/15 10:02:02;;;;;;;8.15;2.90;;;;;;;;;;4985149;28;20490;-68
2024/01/15 10:04:28;;;;;;;4.68;2.30;;;;;;;;;;4982745;28;20103;-69
2024/01/15 10:06:54;;;;;;;7.75;2.88;;;;;;;;;;4993234;28;20125;-69
2024/01/15 10:09:20;;;;;;;10.43;3.10;;;;;;;;;;4984992;28;20059;-69
2024/01/15 10:11:46;;;;;;;9.20;2.78;;;;;;;;;;5000743;28;20064;-68
2024/01/15 10:14:13;;;;;;;11.32;3.25;;;;;;;;;;4992172;28;20406;-68
2024/01/15 10:16:39;;;;;;;10.10;3.22;;;;;;;;;;4987307;28;20462;-69
2024/01/15 10:19:05;;;;;;;13.05;3.65;;;;;;;;;;4992067;28;20053;-69
2024/01/15 10:21:35;;;;;;;8.65;2.92;;;;;;;;;;4995229;28;20078;-69
2024/01/15 10:24:02;;;;;;;8.73;2.65;;;;;;;;;;5029783;28;20130;-70
2024/01/15 10:26:28;;;;;;;9.50;3.53;;;;;;;;;;5012192;28;20057;-69
2024/01/15 10:28:54;;;;;;;13.85;4.95;;;;;;;;;;5021576;28;20153;-69
2024/01/15 10:31:21;;;;;;;21.35;4.78;;;;;;;;;;4994091;28;20888;-68
2024/01/15 10:33:48;;;;;;;16.60;3.83;;;;;;;;;;4977525;28;20173;-69
2024/01/15 10:36:16;;;;;;;13.90;3.20;;;;;;;;;;4992488;28;20050;-69
2024/01/15 10:38:42;;;;;;;15.93;4.38;;;;;;;;;;5023668;28;20506;-69
2024/01/15 10:41:08;;;;;;;18.80;3.95;;;;;;;;;;4995700;28;20068;-69
2024/01/15 10:43:34;;;;;;;19.20;4.85;;;;;;;;;;4987863;28;20140;-69
2024/01/15 10:46:00;;;;;;;16.98;4.50;;;;;;;;;;5015527;28;20069;-68
2024/01/15 10:48:28;;;;;;;18.38;3.70;;;;;;;;;;5023576;28;20509;-69
2024/01/15 10:50:54;;;;;;;19.02;4.50;;;;;;;;;;4990036;28;20043;-69
2024/01/15 10:53:24;;;;;;;19.15;3.70;;;;;;;;;;4988520;28;20042;-68
2024/01/15 10:55:51;;;;;;;14.32;3.78;;;;;;;;;;4990402;28;20061;-68
2024/01/15 10:58:18;;;;;;;13.00;3.30;;;;;;;;;;5022499;28;20104;-69
2024/01/15 11:00:44;;;;;;;12.60;3.35;;;;;;;;;;5017414;28;20046;-69
2024/01/15 11:03:10;;;;;;;12.05;2.88;;;;;;;;;;4990154;28;20109;-69
2024/01/15 11:05:42;;;;;;;11.65;3.00;;;;;;;;;;5014446;28;20427;-69
2024/01/15 11:08:08;;;;;;;10.70;2.95;;;;;;;;;;4990680;28;20528;-69
2024/01/15 11:10:41;;;;;;;13.57;3.28;;;;;;;;;;4986730;28;20043;-69
2024/01/15 11:13:20;;;;;;;8.93;3.00;;;;;;;;;;5022266;28;20555;-69
2024/01/15 11:16:03;;;;;;;12.30;2.88;;;;;;;;;;4994543;28;20042;-69
2024/01/15 11:18:35;;;;;;;12.48;2.88;;;;;;;;;;4993457;28;20126;-70
2024/01/15 11:21:16;;;;;;;7.80;2.85;;;;;;;;;;5019192;28;20045;-69
2024/01/15 11:23:46;;;;;;;9.48;3.00;;;;;;;;;;4999261;28;20074;-69
2024/01/15 11:26:31;;;;;;;10.63;3.10;;;;;;;;;;4982951;28;20494;-69
2024/01/15 11:28:59;;;;;;;7.50;2.42;;;;;;;;;;4986262;28;20054;-69
2024/01/15 11:31:37;;;;;;;13.90;2.45;;;;;;;;;;4995346;28;20436;-68
2024/01/15 11:34:03;;;;;;;9.85;2.97;;;;;;;;;;4986916;28;20061;-70
2024/01/15 11:36:48;;;;;;;9.23;2.92;;;;;;;;;;4980793;28;20104;-70
2024/01/15 11:39:32;;;;;;;9.52;2.70;;;;;;;;;;4986469;28;20058;-70
2024/01/15 11:42:01;;;;;;;11.35;3.13;;;;;;;;;;5025933;28;20769;-69
2024/01/15 11:44:27;;;;;;;7.78;3.00;;;;;;;;;;5021597;28;20042;-69
2024/01/15 11:47:02;;;;;;;11.75;3.20;;;;;;;;;;4983071;28;20538;-70
2024/01/15 11:49:47;;;;;;;9.93;3.00;;;;;;;;;;4990497;28;20057;-69
2024/01/15 11:52:16;;;;;;;10.95;3.00;;;;;;;;;;5020573;28;20530;-70
2024/01/15 11:54:48;;;;;;;10.40;3.40;;;;;;;;;;5022479;28;20056;-70
2024/01/15 11:57:19;;;;;;;14.68;2.95;;;;;;;;;;4979331;28;20041;-69
2024/01/15 11:59:45;;;;;;;10.55;2.53;;;;;;;;;;5006312;28;20093;-70
2024/01/15 12:02:12;;;;;;;12.57;2.95;;;;;;;;;;5021496;28;20038;-69
2024/01/15 12:04:39;;;;;;;9.20;4.00;;;;;;;;;;4998699;28;20065;-70
2024/01/15 12:07:07;;;;;;;16.13;3.83;;;;;;;;;;5026012;28;20050;-69
2024/01/15 12:09:33;;;;;;;18.10;4.00;;;;;;;;;;5026404;28;20113;-69
2024/01/15 12:12:05;;;;;;;10.57;3.60;;;;;;;;;;4988426;28;20054;-69
2024/01/15 12:14:32;;;;;;;7.95;2.50;;;;;;;;;;5026570;28;20450;-70
2024/01/15 12:16:58;;;;;;;9.45;2.35;;;;;;;;;;5023400;28;20047;-69
2024/01/15 12:19:24;;;;;;;15.93;3.03;;;;;;;;;;4977355;28;20383;-68
2024/01/15 12:21:53;;;;;;;14.20;3.60;;;;;;;;;;4982344;28;20487;-68
2024/01/15 12:24:19;;;;;;;18.75;4.10;;;;;;;;;;4980362;28;20138;-69
2024/01/15 12:26:45;;;;;;;10.50;3.13;;;;;;;;;;4988745;28;20070;-68
2024/01/15 12:29:11;;;;;;;16.00;3.95;;;;;;;;;;4993407;28;20054;-70
2024/01/15 12:31:37;;;;;;;11.23;3.45;;;;;;;;;;4984754;28;20074;-71
2024/01/15 12:34:03;;;;;;;7.60;2.58;;;;;;;;;;4993177;28;20395;-71
2024/01/15 12:36:33;;;;;;;8.52;2.60;;;;;;;;;;5022218;28;20057;-69
2024/01/15 12:39:02;;;;;;;8.93;2.72;;;;;;;;;;4993146;28;20065;-69
2024/01/15 12:41:28;;;;;;;7.90;2.75;;;;;;;;;;4994445;28;20046;-69
2024/01/15 12:43:54;;;;;;;13.90;3.10;;;;;;;;;;4991316;28;20054;-69
2024/01/15 12:46:20;;;;;;;5.40;2.10;;;;;;;;;;4985819;28;20057;-68
2024/01/15 12:48:46;;;;;;;14.25;3.63;;;;;;;;;;4992442;28;20137;-69
2024/01/15 12:51:12;;;;;;;11.43;3.30;;;;;;;;;;4993652;28;20057;-69
2024/01/15 12:53:38;;;;;;;13.07;3.40;;;;;;;;;;4990986;28;20047;-69
2024/01/15 12:56:04;;;;;;;9.00;2.97;;;;;;;;;;5025560;28;20557;-69
2024/01/15 12:58:30;;;;;;;16.10;3.63;;;;;;;;;;4991221;28;20046;-69
2024/01/15 13:00:57;;;;;;;11.77;3.90;;;;;;;;;;4991423;28;20054;-69
2024/01/15 13:03:23;;;;;;;11.57;3.55;;;;;;;;;;4984079;28;20524;-69
2024/01/15 13:05:51;;;;;;;15.77;3.95;;;;;;;;;;4980075;28;20245;-69
2024/01/15 13:08:17;;;;;;;12.27;3.28;;;;;;;;;;4992045;28;20495;-69
2024/01/15 13:10:43;;;;;;;8.02;3.55;;;;;;;;;;4984888;28;20043;-70
2024/01/15 13:13:09;;;;;;;8.75;2.97;;;;;;;;;;4987636;28;20057;-69
2024/01/15 13:15:35;;;;;;;8.40;3.17;;;;;;;;;;5022851;28;20050;-70
2024/01/15 13:18:01;;;;;;;13.65;3.38;;;;;;;;;;4983948;28;20057;-69
2024/01/15 13:20:28;;;;;;;10.25;3.28;;;;;;;;;;5004786;28;20078;-70
2024/01/15 13:22:55;;;;;;;11.00;2.58;;;;;;;;;;4993246;28;20121;-69
2024/01/15 13:25:21;;;;;;;12.02;3.25;;;;;;;;;;4990515;28;20061;-69
2024/01/15 13:27:50;;;;;;;9.25;3.22;;;;;;;;;;5015893;28;20039;-69
2024/01/15 13:30:16;;;;;;;7.25;2.58;;;;;;;;;;4987648;28;20136;-69
2024/01/15 13:32:42;;;;;;;8.68;2.70;;;;;;;;;;4990259;28;20113;-69
2024/01/15 13:35:11;;;;;;;9.88;2.60;;;;;;;;;;4991550;28;20054;-69
2024/01/15 13:37:38;;;;;;;6.68;2.60;;;;;;;;;;5018029;28;20046;-69
2024/01/15 13:40:04;;;;;;;7.65;2.78;;;;;;;;;;4992750;28;20057;-69
2024/01/15 13:42:30;;;;;;;7.13;2.47;;;;;;;;;;5023441;28;20030;-70
2024/01/15 13:44:56;;;;;;;8.50;2.85;;;;;;;;;;4991248;28;20465;-69
2024/01/15 13:47:22;;;;;;;8.02;2.85;;;;;;;;;;4981337;28;20058;-69
2024/01/15 13:49:48;;;;;;;8.20;2.90;;;;;;;;;;4992772;28;20454;-69
2024/01/15 13:52:14;;;;;;;12.13;2.88;;;;;;;;;;5024629;28;20052;-69
2024/01/15 13:54:40;;;;;;;11.50;3.40;;;;;;;;;;4979983;28;20051;-69
2024/01/15 13:57:06;;;;;;;9.30;2.85;;;;;;;;;;5011577;28;20054;-69
2024/01/15 13:59:33;;;;;;;10.43;3.17;;;;;;;;;;5023815;28;20058;-69
2024/01/15 14:01:59;;;;;;;14.63;3.28;;;;;;;;;;4984403;28;20034;-69
2024/01/15 14:04:25;;;;;;;16.35;3.28;;;;;;;;;;4986893;28;20088;-69
2024/01/15 14:06:51;;;;;;;10.52;3.00;;;;;;;;;;4987108;28;20038;-69
2024/01/15 14:09:17;;;;;;;11.85;2.60;;;;;;;;;;4983012;28;20054;-69
2024/01/15 14:11:43;;;;;;;10.73;3.33;;;;;;;;;;4992135;28;20054;-69
2024/01/15 14:14:09;;;;;;;13.50;3.50;;;;;;;;;;4990386;28;20053;-69
2024/01/15 14:16:35;;;;;;;12.27;2.85;;;;;;;;;;4991974;28;20061;-70
2024/01/15 14:19:02;;;;;;;10.32;2.83;;;;;;;;;;4987721;28;20038;-69
2024/01/15 14:21:28;;;;;;;5.15;2.70;;;;;;;;;;4980480;28;20054;-69
2024/01/15 14:23:54;;;;;;;5.90;2.42;;;;;;;;;;4994674;28;20062;-70
2024/01/15 14:26:20;;;;;;;9.55;2.30;;;;;;;;;;4975670;28;20047;-69
2024/01/15 14:28:47;;;;;;;8.27;2.40;;;;;;;;;;4989985;28;20042;-69
2024/01/15 14:31:13;;;;;;;8.32;2.45;;;;;;;;;;4980590;28;20081;-69